This is the latest recevied weather packets stored in our database for station/object IT9RID. If no packets are shown the sender has not sent any weather packets the latest 1 day(s).
| Time | Temp. | Humidity | Pressure | Rain* | Wind** | Luminosity | Snow |
|---|---|---|---|---|---|---|---|
| 1778033075 | 19.44° C | 44% | 1012.3 hPa | 0 mm | - | - | - |
| 1778032474 | 18.89° C | 46% | 1012.3 hPa | 0 mm | - | - | - |
| 1778031874 | 18.89° C | 53% | 1012.3 hPa | 0 mm | - | - | - |
| 1778030674 | 19.44° C | 47% | 1012.6 hPa | 0 mm | - | - | - |
| 1778030074 | 18.89° C | 53% | 1012.7 hPa | 0 mm | - | - | - |
| 1778029474 | 19.44° C | 56% | 1012.6 hPa | 0 mm | - | - | - |
| 1778028874 | 20.56° C | 38% | 1012.7 hPa | 0 mm | - | - | - |
| 1778028274 | 20° C | 40% | 1012.6 hPa | 0 mm | - | - | - |
| 1778027673 | 20° C | 41% | 1012.7 hPa | 0 mm | - | - | - |
| 1778027073 | 20° C | 41% | 1013 hPa | 0 mm | - | - | - |
| 1778026473 | 20° C | 43% | 1013 hPa | 0 mm | - | - | - |
| 1778025273 | 20° C | 44% | 1013 hPa | 0 mm | - | - | - |
| 1778021072 | 18.33° C | 66% | 1013.3 hPa | 0 mm | - | - | - |
| 1778017471 | 17.78° C | 74% | 1014.3 hPa | 0 mm | - | - | - |
| 1778016871 | 17.78° C | 74% | 1014.3 hPa | 0 mm | - | - | - |
| 1778016271 | 17.78° C | 75% | 1014.5 hPa | 0 mm | - | - | - |
| 1778014470 | 17.22° C | 79% | 1014.5 hPa | 0 mm | - | - | - |
| 1778009069 | 17.78° C | 81% | 1015.4 hPa | 0 mm | - | - | - |
| 1778007869 | 17.78° C | 80% | 1015.4 hPa | 0 mm | - | - | - |
| 1778005468 | 18.33° C | 79% | 1015.3 hPa | 0 mm | - | - | - |
| 1778003067 | 18.33° C | 78% | 1015.5 hPa | 0 mm | - | - | - |
| 1778002467 | 18.33° C | 78% | 1015.4 hPa | 0 mm | - | - | - |
| 1778001867 | 18.33° C | 77% | 1015.5 hPa | 0 mm | - | - | - |
* Rain latest hour (hover to see other rain measurements)
** Current wind speed in m/s (hover to see current wind gust speed)